Time;durP1;ratioP1;P1;durP2;ratioP2;P2;SDS_P1;SDS_P2;PMS_P1;PMS_P2;Temp;Humidity;BMP_temperature;BMP_pressure;BME280_temperature;BME280_humidity;BME280_pressure;Samples;Min_cycle;Max_cycle;Signal;HPM_P1;HPM_P2
2023/03/22 00:00:51;;;;;;;2.58;1.90;;;13.80;99.90;;;;;;7386893;19;20130;-72
2023/03/22 00:03:16;;;;;;;2.85;1.75;;;13.60;99.90;;;;;;7386541;19;20134;-70
2023/03/22 00:05:43;;;;;;;2.15;1.75;;;13.60;99.90;;;;;;7385213;19;20470;-71
2023/03/22 00:08:09;;;;;;;5.43;1.98;;;13.70;99.90;;;;;;7386190;19;20139;-72
2023/03/22 00:10:37;;;;;;;2.65;1.95;;;13.80;99.90;;;;;;7387589;19;20146;-71
2023/03/22 00:13:05;;;;;;;2.97;2.10;;;13.70;99.90;;;;;;7385221;19;20209;-71
2023/03/22 00:15:31;;;;;;;4.40;2.17;;;13.70;99.90;;;;;;7385675;19;20154;-71
2023/03/22 00:17:57;;;;;;;3.55;1.75;;;13.60;99.90;;;;;;7384936;19;20194;-71
2023/03/22 00:20:32;;;;;;;3.72;2.13;;;13.60;99.90;;;;;;7384777;19;20154;-70
2023/03/22 00:22:59;;;;;;;3.03;1.70;;;13.60;99.90;;;;;;7384151;19;20160;-70
2023/03/22 00:25:25;;;;;;;4.63;2.30;;;13.70;99.90;;;;;;7384483;19;20859;-71
2023/03/22 00:27:52;;;;;;;4.22;1.90;;;13.50;99.90;;;;;;7386366;19;20151;-71
2023/03/22 00:30:18;;;;;;;4.82;2.25;;;13.40;99.90;;;;;;7385720;19;20149;-70
2023/03/22 00:32:43;;;;;;;6.07;2.30;;;13.40;99.90;;;;;;7387709;19;20139;-71
2023/03/22 00:35:10;;;;;;;3.00;1.90;;;13.50;99.90;;;;;;7386121;19;20835;-72
2023/03/22 00:37:37;;;;;;;3.30;1.73;;;13.50;99.90;;;;;;7386148;19;20139;-71
2023/03/22 00:40:07;;;;;;;4.07;1.98;;;13.60;99.90;;;;;;7388627;19;20194;-70
2023/03/22 00:42:35;;;;;;;2.85;1.98;;;13.60;99.90;;;;;;7386620;19;20472;-71
2023/03/22 00:45:01;;;;;;;1.67;1.50;;;13.60;99.90;;;;;;7384919;19;20163;-71
2023/03/22 00:47:26;;;;;;;3.55;1.63;;;13.60;99.90;;;;;;7383410;19;20123;-73
2023/03/22 00:49:52;;;;;;;2.25;1.63;;;13.50;99.90;;;;;;7386350;19;20476;-71
2023/03/22 00:52:18;;;;;;;2.58;1.80;;;13.50;99.90;;;;;;7383503;19;20164;-71
2023/03/22 00:54:44;;;;;;;2.65;1.50;;;13.50;99.90;;;;;;7392468;19;20139;-70
2023/03/22 00:57:11;;;;;;;2.28;1.55;;;13.40;99.90;;;;;;7391959;19;20145;-71
2023/03/22 00:59:38;;;;;;;2.42;1.85;;;13.40;99.90;;;;;;7392005;19;20146;-71
2023/03/22 01:02:05;;;;;;;2.58;1.30;;;13.40;99.90;;;;;;7389352;19;20182;-72
2023/03/22 01:04:34;;;;;;;2.15;1.70;;;13.40;99.90;;;;;;7390184;19;20178;-71
2023/03/22 01:07:02;;;;;;;3.10;1.85;;;13.40;99.90;;;;;;7392648;19;20669;-72
2023/03/22 01:09:32;;;;;;;2.22;1.52;;;13.40;99.90;;;;;;7392481;19;20134;-71
2023/03/22 01:11:59;;;;;;;2.40;1.58;;;13.30;99.90;;;;;;7390255;19;20166;-71
2023/03/22 01:14:26;;;;;;;1.90;1.70;;;13.30;99.90;;;;;;7391165;19;20218;-70
2023/03/22 01:16:56;;;;;;;4.23;1.67;;;13.40;99.90;;;;;;7390344;19;20850;-71
2023/03/22 01:19:23;;;;;;;2.83;1.73;;;13.30;99.90;;;;;;7393093;19;20133;-71
2023/03/22 01:21:49;;;;;;;1.77;1.27;;;13.40;99.90;;;;;;7390255;19;20146;-70
2023/03/22 01:24:15;;;;;;;1.60;1.35;;;13.40;99.90;;;;;;7392081;19;20139;-72
2023/03/22 01:26:41;;;;;;;2.00;1.40;;;13.30;99.90;;;;;;7388236;19;20134;-71
2023/03/22 01:29:07;;;;;;;3.17;1.63;;;13.30;99.90;;;;;;7393070;19;20135;-71
2023/03/22 01:31:34;;;;;;;2.40;1.60;;;13.30;99.90;;;;;;7388577;19;20146;-72
2023/03/22 01:33:59;;;;;;;2.25;1.70;;;13.30;99.90;;;;;;7393171;19;20153;-71
2023/03/22 01:36:25;;;;;;;2.58;1.70;;;13.30;99.90;;;;;;7388697;19;20258;-71
2023/03/22 01:38:51;;;;;;;1.90;1.65;;;13.40;99.90;;;;;;7388930;19;20135;-71
2023/03/22 01:41:17;;;;;;;1.98;1.50;;;13.20;99.90;;;;;;7390927;19;20138;-70
2023/03/22 01:43:43;;;;;;;2.70;1.35;;;13.20;99.90;;;;;;7388930;19;20486;-70
2023/03/22 01:46:08;;;;;;;3.08;1.58;;;13.20;99.90;;;;;;7387965;19;20142;-71
2023/03/22 01:48:45;;;;;;;2.20;1.65;;;13.20;99.90;;;;;;7392105;19;20165;-71
2023/03/22 01:51:25;;;;;;;3.15;1.58;;;13.10;99.90;;;;;;7388597;19;20146;-70
2023/03/22 01:53:55;;;;;;;3.20;2.15;;;13.00;99.90;;;;;;7391217;19;20170;-71
2023/03/22 01:56:24;;;;;;;2.60;1.50;;;13.00;99.90;;;;;;7390774;19;20214;-72
2023/03/22 01:58:53;;;;;;;3.03;1.73;;;13.00;99.90;;;;;;7391336;19;20210;-71
2023/03/22 02:01:19;;;;;;;2.13;1.70;;;13.00;99.90;;;;;;7389639;19;20146;-73
2023/03/22 02:04:00;;;;;;;2.20;1.70;;;13.10;99.90;;;;;;7385986;19;21057;-72
2023/03/22 02:06:28;;;;;;;4.45;1.85;;;12.70;99.90;;;;;;7391502;19;20164;-73
2023/03/22 02:08:57;;;;;;;2.33;1.40;;;12.70;99.90;;;;;;7390396;19;20939;-73
2023/03/22 02:12:12;;;;;;;3.17;1.90;;;12.70;99.90;;;;;;7391760;19;20166;-72
2023/03/22 02:14:43;;;;;;;2.77;1.87;;;12.60;99.90;;;;;;7390415;19;20157;-72
2023/03/22 02:17:18;;;;;;;3.63;1.38;;;12.70;99.90;;;;;;7389649;19;20177;-71
2023/03/22 02:20:06;;;;;;;1.93;1.57;;;12.70;99.90;;;;;;7390188;19;20619;-72
2023/03/22 02:22:57;;;;;;;2.60;1.70;;;12.80;99.90;;;;;;7389232;19;20134;-73
2023/03/22 02:25:54;;;;;;;3.73;1.90;;;12.80;99.90;;;;;;7392384;19;20162;-73
2023/03/22 02:28:41;;;;;;;2.58;1.88;;;12.90;99.90;;;;;;7389844;19;20142;-73
2023/03/22 02:31:10;;;;;;;4.70;2.20;;;12.80;99.90;;;;;;7389593;19;20147;-72
2023/03/22 02:33:47;;;;;;;1.60;1.50;;;12.80;99.90;;;;;;7390937;19;20139;-72
2023/03/22 02:36:42;;;;;;;2.55;1.73;;;12.80;99.90;;;;;;7390172;19;20134;-73
2023/03/22 02:39:14;;;;;;;2.93;1.57;;;12.70;99.90;;;;;;7390420;19;20137;-74
2023/03/22 02:41:58;;;;;;;1.90;1.47;;;12.70;99.90;;;;;;7389204;19;20154;-73
2023/03/22 02:44:36;;;;;;;2.00;1.48;;;12.70;99.90;;;;;;7390019;19;20142;-73
2023/03/22 02:47:25;;;;;;;2.30;1.50;;;12.60;99.90;;;;;;7388849;19;20174;-73
2023/03/22 02:50:09;;;;;;;1.98;1.80;;;12.70;99.90;;;;;;7388080;19;20143;-73
2023/03/22 02:52:47;;;;;;;2.37;1.40;;;12.60;99.90;;;;;;7389731;19;20205;-72
2023/03/22 02:55:25;;;;;;;3.70;1.87;;;12.60;99.90;;;;;;7387231;19;21040;-72
2023/03/22 02:58:13;;;;;;;3.83;1.67;;;12.60;99.90;;;;;;7390591;19;20157;-71
2023/03/22 03:00:40;;;;;;;3.30;1.50;;;12.60;99.90;;;;;;7387652;19;20139;-72
2023/03/22 03:03:11;;;;;;;2.33;1.77;;;12.60;99.90;;;;;;7380823;19;20138;-72
2023/03/22 03:06:00;;;;;;;1.87;1.47;;;12.50;99.90;;;;;;7390302;19;20138;-73
2023/03/22 03:08:27;;;;;;;2.67;1.50;;;12.50;99.90;;;;;;7384341;19;20721;-73
2023/03/22 03:10:55;;;;;;;2.13;1.40;;;12.50;99.90;;;;;;7385683;19;20166;-72
2023/03/22 03:13:21;;;;;;;3.27;1.73;;;12.40;99.90;;;;;;7389065;19;20145;-73
2023/03/22 03:15:57;;;;;;;2.80;1.60;;;12.40;99.90;;;;;;7387434;19;20609;-73
2023/03/22 03:18:33;;;;;;;1.98;1.40;;;12.40;99.90;;;;;;7388040;19;20175;-73
2023/03/22 03:21:13;;;;;;;2.50;1.53;;;12.40;99.90;;;;;;7388332;19;20154;-72
2023/03/22 03:24:01;;;;;;;4.60;1.70;;;12.40;99.90;;;;;;7386267;19;20303;-74
2023/03/22 03:26:39;;;;;;;2.53;1.83;;;12.40;99.90;;;;;;7387294;19;20159;-72
2023/03/22 03:29:15;;;;;;;3.40;1.70;;;12.40;99.90;;;;;;7383846;19;20855;-72
2023/03/22 03:31:40;;;;;;;1.93;1.67;;;12.40;99.90;;;;;;7387529;19;20142;-72
2023/03/22 03:34:23;;;;;;;2.15;1.90;;;12.30;99.90;;;;;;7387278;19;20149;-73
2023/03/22 03:37:18;;;;;;;2.42;1.65;;;12.30;99.90;;;;;;7386704;19;20134;-74
2023/03/22 03:39:54;;;;;;;1.60;1.30;;;12.30;99.90;;;;;;7388682;19;20163;-73
2023/03/22 03:42:24;;;;;;;1.73;1.47;;;12.30;99.90;;;;;;7385203;19;20154;-73
2023/03/22 03:44:50;;;;;;;2.77;1.80;;;12.40;99.90;;;;;;7387926;19;20143;-72
2023/03/22 03:47:16;;;;;;;4.13;1.70;;;12.30;99.90;;;;;;7386690;19;20155;-71
2023/03/22 03:49:42;;;;;;;1.73;1.48;;;12.30;99.90;;;;;;7387245;19;20138;-74
2023/03/22 03:52:08;;;;;;;3.87;1.60;;;12.20;99.90;;;;;;7385043;19;20611;-73
2023/03/22 03:54:34;;;;;;;3.77;1.73;;;12.10;99.90;;;;;;7390357;19;20581;-72
2023/03/22 03:57:00;;;;;;;2.70;1.60;;;12.00;99.90;;;;;;7385004;19;20206;-73
2023/03/22 03:59:26;;;;;;;4.10;1.63;;;12.00;99.90;;;;;;7389357;19;20138;-73
2023/03/22 04:01:52;;;;;;;2.97;1.57;;;12.10;99.90;;;;;;7385277;19;20619;-72
2023/03/22 04:04:25;;;;;;;1.98;1.45;;;12.20;99.90;;;;;;7386669;19;20178;-74
2023/03/22 04:06:59;;;;;;;2.23;1.90;;;12.20;99.90;;;;;;7385291;19;20202;-73
2023/03/22 04:09:26;;;;;;;2.87;1.60;;;12.30;99.90;;;;;;7387595;19;20158;-73
2023/03/22 04:11:54;;;;;;;2.65;1.50;;;12.30;99.90;;;;;;7388323;19;20138;-73
2023/03/22 04:14:20;;;;;;;2.47;1.95;;;12.10;99.90;;;;;;7386400;19;20226;-71
2023/03/22 04:16:46;;;;;;;2.08;1.50;;;11.90;99.90;;;;;;7384608;19;20226;-72
2023/03/22 04:19:12;;;;;;;1.97;1.63;;;11.90;99.90;;;;;;7387442;19;20139;-73
2023/03/22 04:21:38;;;;;;;2.17;1.40;;;11.80;99.90;;;;;;7385459;19;20143;-73
2023/03/22 04:24:05;;;;;;;1.40;1.20;;;11.90;99.90;;;;;;7386222;19;20611;-72
2023/03/22 04:26:31;;;;;;;2.67;1.30;;;11.90;99.90;;;;;;7386215;19;20138;-72
2023/03/22 04:29:01;;;;;;;2.87;1.60;;;11.90;99.90;;;;;;7391127;19;20218;-73
2023/03/22 04:31:28;;;;;;;2.40;1.73;;;11.90;99.90;;;;;;7393016;19;20173;-74
2023/03/22 04:33:54;;;;;;;2.10;1.60;;;11.90;99.90;;;;;;7393637;19;20157;-72
2023/03/22 04:36:24;;;;;;;2.07;1.53;;;11.90;99.90;;;;;;7391860;19;20147;-72
2023/03/22 04:38:50;;;;;;;2.17;1.40;;;11.90;99.90;;;;;;7394715;19;20142;-72
2023/03/22 04:41:17;;;;;;;1.38;1.17;;;12.00;99.90;;;;;;7395470;19;20142;-72
2023/03/22 04:43:45;;;;;;;2.93;1.60;;;12.10;99.90;;;;;;7394452;19;20135;-71
2023/03/22 04:46:12;;;;;;;2.73;1.80;;;12.10;99.90;;;;;;7392945;19;20594;-73
2023/03/22 04:48:40;;;;;;;4.32;1.90;;;12.00;99.90;;;;;;7392072;19;20996;-72
2023/03/22 04:51:07;;;;;;;4.47;1.60;;;12.00;99.90;;;;;;7394086;19;20214;-73
2023/03/22 04:53:37;;;;;;;3.17;1.93;;;12.00;99.90;;;;;;7393114;19;20141;-73
2023/03/22 04:56:08;;;;;;;2.28;1.73;;;12.10;99.90;;;;;;7394030;19;20147;-72
2023/03/22 04:58:40;;;;;;;3.80;1.90;;;12.10;99.90;;;;;;7391133;19;20452;-73
2023/03/22 05:01:08;;;;;;;2.72;1.70;;;12.10;99.90;;;;;;7393862;19;20131;-73
2023/03/22 05:03:34;;;;;;;3.03;1.60;;;12.00;99.90;;;;;;7393414;19;20170;-72
2023/03/22 05:06:01;;;;;;;3.03;1.70;;;12.00;99.90;;;;;;7391454;19;20143;-73
2023/03/22 05:08:28;;;;;;;2.70;1.60;;;12.10;99.90;;;;;;7392425;19;20206;-73
2023/03/22 05:10:56;;;;;;;2.10;1.52;;;11.90;99.90;;;;;;7393336;19;20240;-73
2023/03/22 05:13:24;;;;;;;2.80;1.43;;;11.90;99.90;;;;;;7392842;19;20564;-74
2023/03/22 05:15:50;;;;;;;2.47;1.60;;;11.90;99.90;;;;;;7389867;19;20135;-72
2023/03/22 05:18:19;;;;;;;2.13;1.83;;;11.50;99.90;;;;;;7391614;19;20144;-73
2023/03/22 05:20:45;;;;;;;3.83;2.03;;;11.70;99.90;;;;;;7391923;19;20134;-73
2023/03/22 05:23:12;;;;;;;2.38;1.75;;;11.30;99.90;;;;;;7390120;19;20230;-73
2023/03/22 05:25:43;;;;;;;4.57;2.00;;;11.20;99.90;;;;;;7391452;19;20139;-72
2023/03/22 05:28:10;;;;;;;2.67;1.80;;;11.10;99.90;;;;;;7391653;19;20173;-72
2023/03/22 05:30:36;;;;;;;2.77;2.17;;;10.90;99.90;;;;;;7391329;19;20154;-73
2023/03/22 05:33:03;;;;;;;4.20;2.17;;;11.00;99.90;;;;;;7391011;19;20562;-72
2023/03/22 05:35:30;;;;;;;5.40;2.30;;;11.20;99.90;;;;;;7391390;19;20143;-73
2023/03/22 05:37:57;;;;;;;5.65;2.88;;;11.30;99.90;;;;;;7386503;19;20889;-73
2023/03/22 05:40:24;;;;;;;3.37;2.47;;;11.40;99.90;;;;;;7387625;19;20150;-73
2023/03/22 05:42:50;;;;;;;4.20;2.40;;;11.30;99.90;;;;;;7390499;19;20282;-72
2023/03/22 05:45:17;;;;;;;2.60;1.90;;;11.50;99.90;;;;;;7390376;19;20834;-73
2023/03/22 05:47:43;;;;;;;2.67;1.83;;;11.20;99.90;;;;;;7391925;19;20234;-72
2023/03/22 05:50:12;;;;;;;2.83;2.30;;;11.00;99.90;;;;;;7390607;19;20579;-74
2023/03/22 05:52:37;;;;;;;2.83;2.17;;;10.90;99.90;;;;;;7391276;19;20254;-74
2023/03/22 05:55:04;;;;;;;2.20;1.80;;;11.00;99.90;;;;;;7389021;19;20137;-72
2023/03/22 05:57:30;;;;;;;6.73;2.03;;;10.90;99.90;;;;;;7393094;19;20615;-73
2023/03/22 05:59:57;;;;;;;3.83;2.30;;;11.10;99.90;;;;;;7389434;19;20483;-73
2023/03/22 06:02:23;;;;;;;3.10;1.80;;;11.00;99.90;;;;;;7390399;19;20146;-72
2023/03/22 06:04:50;;;;;;;3.10;1.83;;;11.20;99.90;;;;;;7387230;19;20182;-73
2023/03/22 06:07:17;;;;;;;3.40;2.20;;;11.50;99.90;;;;;;7391080;19;20127;-73
2023/03/22 06:09:43;;;;;;;6.87;2.30;;;11.50;99.90;;;;;;7388855;19;20118;-74
2023/03/22 06:12:10;;;;;;;4.90;2.40;;;11.40;99.90;;;;;;7391146;19;20698;-72
2023/03/22 06:14:35;;;;;;;7.13;2.63;;;10.90;99.90;;;;;;7388910;19;20487;-73
2023/03/22 06:17:02;;;;;;;2.92;2.08;;;11.10;99.90;;;;;;7388848;19;20146;-73
2023/03/22 06:19:27;;;;;;;3.30;2.00;;;11.30;99.90;;;;;;7392726;19;20138;-72
2023/03/22 06:21:54;;;;;;;4.77;1.87;;;11.30;99.90;;;;;;7386669;19;20142;-73
2023/03/22 06:24:20;;;;;;;3.33;2.07;;;11.20;99.90;;;;;;7389903;19;20137;-74
2023/03/22 06:26:46;;;;;;;3.00;2.07;;;10.80;99.90;;;;;;7387622;19;20207;-73
2023/03/22 06:29:12;;;;;;;4.32;2.33;;;10.80;99.90;;;;;;7385743;19;20161;-73
2023/03/22 06:31:38;;;;;;;5.07;2.03;;;11.00;99.90;;;;;;7387643;19;20643;-73
2023/03/22 06:34:04;;;;;;;5.30;4.10;;;11.00;99.90;;;;;;7385157;19;20150;-74
2023/03/22 06:36:31;;;;;;;3.60;2.80;;;11.10;99.90;;;;;;7388534;19;20238;-73
2023/03/22 06:39:01;;;;;;;5.55;2.60;;;11.10;99.90;;;;;;7384566;19;20682;-73
2023/03/22 06:41:27;;;;;;;4.27;1.80;;;11.20;99.90;;;;;;7385456;19;20150;-74
2023/03/22 06:43:53;;;;;;;3.57;2.20;;;11.10;99.90;;;;;;7387311;19;20138;-73
2023/03/22 06:46:19;;;;;;;4.47;2.20;;;11.30;99.90;;;;;;7385440;19;20605;-72
2023/03/22 06:48:44;;;;;;;5.33;2.57;;;11.10;99.90;;;;;;7386262;19;20149;-72
2023/03/22 06:51:10;;;;;;;4.53;2.25;;;11.20;99.90;;;;;;7381289;19;20134;-73
2023/03/22 06:53:36;;;;;;;4.47;2.35;;;11.40;99.90;;;;;;7383397;19;20214;-73
2023/03/22 06:56:02;;;;;;;7.10;2.27;;;11.50;99.90;;;;;;7384317;19;20151;-74
2023/03/22 06:58:27;;;;;;;2.87;1.77;;;11.30;99.90;;;;;;7390423;19;20198;-72
2023/03/22 07:00:57;;;;;;;3.20;1.67;;;11.10;99.90;;;;;;7381984;19;20134;-73
2023/03/22 07:03:23;;;;;;;4.63;2.17;;;11.10;99.90;;;;;;7386617;19;20645;-75
2023/03/22 07:05:51;;;;;;;5.05;1.63;;;11.30;99.90;;;;;;7387167;19;20238;-73
2023/03/22 07:08:17;;;;;;;4.67;1.83;;;11.20;99.90;;;;;;7386345;19;20160;-74
2023/03/22 07:10:48;;;;;;;3.13;1.93;;;11.20;99.90;;;;;;7386908;19;20151;-73
2023/03/22 07:13:14;;;;;;;5.10;2.20;;;11.40;99.90;;;;;;7387314;19;20154;-74
2023/03/22 07:15:40;;;;;;;2.77;1.97;;;11.30;99.90;;;;;;7385020;19;20145;-75
2023/03/22 07:18:07;;;;;;;2.80;2.00;;;11.60;99.90;;;;;;7385929;19;20160;-73
2023/03/22 07:20:37;;;;;;;5.07;2.10;;;11.60;99.90;;;;;;7385065;19;20138;-73
2023/03/22 07:23:03;;;;;;;2.90;1.67;;;11.40;99.90;;;;;;7388140;19;20511;-74
2023/03/22 07:25:30;;;;;;;4.17;1.83;;;11.40;99.90;;;;;;7386267;19;20466;-72
2023/03/22 07:27:55;;;;;;;2.42;1.83;;;11.40;99.90;;;;;;7388277;19;20198;-73
2023/03/22 07:30:22;;;;;;;3.80;1.90;;;11.40;99.90;;;;;;7384906;19;20199;-73
2023/03/22 07:32:48;;;;;;;2.33;1.83;;;11.40;99.90;;;;;;7385554;19;20151;-73
2023/03/22 07:35:15;;;;;;;6.00;1.45;;;11.60;99.90;;;;;;7386516;19;20234;-73
2023/03/22 07:37:41;;;;;;;2.83;1.83;;;11.80;99.90;;;;;;7385049;19;20159;-72
2023/03/22 07:40:07;;;;;;;2.72;1.52;;;12.10;99.90;;;;;;7387505;19;20162;-73
2023/03/22 07:42:33;;;;;;;3.13;1.90;;;12.20;99.90;;;;;;7385851;19;20834;-73
2023/03/22 07:44:59;;;;;;;2.58;1.95;;;12.40;99.90;;;;;;7385316;19;20150;-75
2023/03/22 07:47:25;;;;;;;2.47;1.30;;;12.40;99.90;;;;;;7385956;19;20229;-75
2023/03/22 07:49:51;;;;;;;4.68;3.15;;;12.40;99.90;;;;;;7385623;19;20190;-74
2023/03/22 07:52:17;;;;;;;7.63;4.15;;;12.50;99.90;;;;;;7384637;19;20136;-76
2023/03/22 07:54:44;;;;;;;4.60;1.95;;;12.70;99.90;;;;;;7384565;19;20242;-75
2023/03/22 07:57:10;;;;;;;3.97;1.60;;;12.70;99.90;;;;;;7383633;19;20583;-72
2023/03/22 07:59:35;;;;;;;1.98;1.58;;;12.90;99.90;;;;;;7386622;19;20142;-75
2023/03/22 08:02:01;;;;;;;8.95;6.07;;;12.90;99.90;;;;;;7384326;19;20158;-74
2023/03/22 08:04:29;;;;;;;3.97;2.50;;;13.00;99.90;;;;;;7384745;19;20207;-74
2023/03/22 08:06:57;;;;;;;2.20;1.30;;;13.10;99.90;;;;;;7387736;19;20135;-73
2023/03/22 08:09:24;;;;;;;0.98;0.82;;;13.10;99.90;;;;;;7385848;19;20138;-74
2023/03/22 08:11:51;;;;;;;2.75;1.98;;;13.30;99.90;;;;;;7386796;19;20138;-75
2023/03/22 08:14:18;;;;;;;6.18;3.42;;;13.40;99.90;;;;;;7384143;19;20529;-75
2023/03/22 08:16:45;;;;;;;2.53;1.67;;;13.40;99.90;;;;;;7384469;19;20591;-75
2023/03/22 08:19:11;;;;;;;11.77;6.45;;;13.50;99.90;;;;;;7385832;19;20641;-74
2023/03/22 08:21:37;;;;;;;4.00;1.95;;;13.60;99.90;;;;;;7381177;19;20150;-74
2023/03/22 08:24:04;;;;;;;3.05;1.60;;;13.60;99.90;;;;;;7384077;19;20156;-74
2023/03/22 08:26:29;;;;;;;2.28;1.30;;;13.70;99.90;;;;;;7379990;19;20139;-74
2023/03/22 08:28:56;;;;;;;2.75;1.25;;;13.90;99.90;;;;;;7384954;19;21082;-74
2023/03/22 08:31:22;;;;;;;1.90;0.90;;;14.00;99.90;;;;;;7384828;19;20168;-75
2023/03/22 08:33:48;;;;;;;1.15;0.98;;;14.20;99.90;;;;;;7384767;19;20130;-75
2023/03/22 08:36:20;;;;;;;2.13;1.15;;;14.30;99.90;;;;;;7383507;19;20203;-75
2023/03/22 08:38:46;;;;;;;1.02;0.90;;;14.50;99.90;;;;;;7384094;19;20552;-74
2023/03/22 08:41:12;;;;;;;1.98;1.08;;;14.70;99.90;;;;;;7384676;19;20160;-74
2023/03/22 08:43:38;;;;;;;1.33;1.00;;;15.00;99.90;;;;;;7384441;19;20591;-74
2023/03/22 08:46:04;;;;;;;5.70;3.38;;;15.20;99.90;;;;;;7384727;19;20158;-76
2023/03/22 08:48:30;;;;;;;1.50;1.10;;;15.40;99.90;;;;;;7382631;19;20164;-74
2023/03/22 08:50:56;;;;;;;1.25;0.88;;;15.60;99.90;;;;;;7385206;19;20150;-75
2023/03/22 08:53:22;;;;;;;0.85;0.82;;;15.80;99.90;;;;;;7384063;19;20146;-74
2023/03/22 08:55:48;;;;;;;1.80;1.10;;;16.10;99.90;;;;;;7384828;19;20138;-74
2023/03/22 08:58:18;;;;;;;1.70;0.98;;;16.30;99.90;;;;;;7385067;19;20143;-74
2023/03/22 09:00:48;;;;;;;3.45;1.80;;;16.40;99.90;;;;;;7383376;19;20146;-76
2023/03/22 09:03:14;;;;;;;1.55;0.75;;;16.60;99.90;;;;;;7384894;19;20139;-75
2023/03/22 09:05:41;;;;;;;0.93;0.80;;;16.70;99.90;;;;;;7384989;19;20156;-75
2023/03/22 09:08:07;;;;;;;1.77;0.98;;;16.70;99.90;;;;;;7384743;19;20163;-73
2023/03/22 09:10:36;;;;;;;2.03;1.20;;;16.70;99.90;;;;;;7382599;19;20135;-75
2023/03/22 09:13:02;;;;;;;1.20;0.77;;;16.80;99.90;;;;;;7384885;19;20146;-76
2023/03/22 09:15:28;;;;;;;2.22;0.70;;;16.90;99.90;;;;;;7387112;19;20127;-76
2023/03/22 09:17:53;;;;;;;2.30;0.90;;;17.10;99.90;;;;;;7391683;19;20135;-76
2023/03/22 09:20:24;;;;;;;1.40;0.80;;;17.20;99.90;;;;;;7388663;19;20142;-75
2023/03/22 09:22:50;;;;;;;1.60;0.88;;;17.40;99.90;;;;;;7387725;19;20179;-74
2023/03/22 09:25:17;;;;;;;4.18;1.38;;;17.50;99.90;;;;;;7388794;19;20145;-75
2023/03/22 09:27:43;;;;;;;1.95;0.95;;;17.50;99.90;;;;;;7392401;19;20134;-74
2023/03/22 09:30:10;;;;;;;1.48;0.82;;;17.50;99.90;;;;;;7388509;19;20143;-74
2023/03/22 09:32:35;;;;;;;2.42;0.68;;;17.60;99.90;;;;;;7389836;19;20134;-75
2023/03/22 09:35:01;;;;;;;0.80;0.70;;;17.70;99.90;;;;;;7390446;19;20460;-75
2023/03/22 09:37:29;;;;;;;2.42;0.70;;;17.80;99.90;;;;;;7389403;19;20138;-76
2023/03/22 09:39:56;;;;;;;1.77;1.08;;;17.80;99.90;;;;;;7391037;19;20146;-77
2023/03/22 09:42:37;;;;;;;1.35;1.10;;;17.80;99.90;;;;;;7388801;19;20171;-79
2023/03/22 09:45:06;;;;;;;1.10;0.90;;;17.90;99.90;;;;;;7391240;19;20133;-79
2023/03/22 09:47:50;;;;;;;1.60;1.33;;;18.00;99.90;;;;;;7389819;19;20138;-78
2023/03/22 09:50:23;;;;;;;2.83;1.80;;;17.90;99.90;;;;;;7390474;19;20123;-80
2023/03/22 09:52:50;;;;;;;2.00;1.25;;;18.00;99.90;;;;;;7390088;19;20168;-77
2023/03/22 09:55:37;;;;;;;2.10;1.30;;;18.00;99.90;;;;;;7387967;19;20137;-79
2023/03/22 09:58:40;;;;;;;2.15;0.90;;;18.10;99.90;;;;;;7391038;19;20131;-80
2023/03/22 10:01:13;;;;;;;1.20;0.70;;;18.10;99.90;;;;;;7391129;19;20146;-81
2023/03/22 10:03:51;;;;;;;0.88;0.70;;;18.10;99.90;;;;;;7391836;19;20482;-80
2023/03/22 10:06:19;;;;;;;1.00;0.80;;;18.10;99.90;;;;;;7390410;19;20193;-81
2023/03/22 10:09:00;;;;;;;4.95;2.10;;;18.10;99.90;;;;;;7391211;19;20134;-82
2023/03/22 10:11:46;;;;;;;2.40;1.20;;;18.30;99.90;;;;;;7392964;19;20138;-81
2023/03/22 10:14:31;;;;;;;1.40;0.75;;;18.40;99.90;;;;;;7394381;19;20138;-78
2023/03/22 10:17:04;;;;;;;1.88;1.15;;;18.60;99.90;;;;;;7387180;19;20169;-80
2023/03/22 10:19:34;;;;;;;1.55;1.30;;;18.50;99.90;;;;;;7388941;19;20166;-78
2023/03/22 10:22:02;;;;;;;1.75;1.50;;;18.30;99.90;;;;;;7385373;19;20591;-77
2023/03/22 10:24:38;;;;;;;1.52;1.27;;;18.10;99.90;;;;;;7385009;19;20603;-76
2023/03/22 10:27:15;;;;;;;1.92;1.02;;;18.20;99.90;;;;;;7385048;19;20623;-76
2023/03/22 10:29:46;;;;;;;1.30;0.70;;;18.30;99.90;;;;;;7386816;19;20242;-79
2023/03/22 10:32:20;;;;;;;2.40;0.88;;;18.20;99.90;;;;;;7399637;19;20137;-76
2023/03/22 10:34:46;;;;;;;2.95;0.80;;;18.10;99.90;;;;;;7386792;19;20205;-76
2023/03/22 10:37:21;;;;;;;3.72;2.17;;;18.20;99.90;;;;;;7386086;19;20157;-77
2023/03/22 10:39:50;;;;;;;1.70;0.73;;;18.40;99.90;;;;;;7393995;19;20639;-76
2023/03/22 10:42:20;;;;;;;1.27;0.75;;;18.50;99.90;;;;;;7387070;19;20187;-78
2023/03/22 10:44:53;;;;;;;2.03;1.10;;;18.60;99.90;;;;;;7389325;19;20154;-74
2023/03/22 10:47:39;;;;;;;1.77;0.80;;;18.70;99.90;;;;;;7387389;19;20653;-76
2023/03/22 10:50:12;;;;;;;3.13;1.30;;;18.60;99.90;;;;;;7387607;19;20269;-79
2023/03/22 10:53:05;;;;;;;1.67;1.10;;;18.80;99.90;;;;;;7388208;19;20135;-79
2023/03/22 10:55:30;;;;;;;3.17;2.20;;;18.90;99.90;;;;;;7386110;19;20134;-75
2023/03/22 10:58:14;;;;;;;3.22;1.42;;;18.90;99.90;;;;;;7397048;19;20139;-78
2023/03/22 11:00:48;;;;;;;1.92;1.25;;;19.20;99.90;;;;;;7393193;19;20531;-77
2023/03/22 11:03:30;;;;;;;2.05;1.02;;;19.00;99.90;;;;;;7389275;19;20134;-75
2023/03/22 11:06:16;;;;;;;2.10;1.17;;;19.00;99.90;;;;;;7388177;19;20599;-77
2023/03/22 11:08:48;;;;;;;1.52;1.30;;;19.00;99.90;;;;;;7386639;19;20141;-78
2023/03/22 11:11:34;;;;;;;2.28;1.40;;;19.30;99.90;;;;;;7386685;19;20611;-79
2023/03/22 11:14:05;;;;;;;4.50;3.17;;;19.40;99.90;;;;;;7386435;19;20153;-79
2023/03/22 11:16:44;;;;;;;1.50;1.10;;;19.50;99.90;;;;;;7389032;19;20137;-79
2023/03/22 11:19:36;;;;;;;1.50;0.88;;;19.60;99.90;;;;;;7392124;19;20138;-78
2023/03/22 11:22:05;;;;;;;1.77;1.33;;;19.40;99.90;;;;;;7388414;19;20158;-78
2023/03/22 11:24:32;;;;;;;3.30;1.83;;;19.50;99.90;;;;;;7388645;19;20856;-79
2023/03/22 11:27:27;;;;;;;3.65;1.00;;;19.50;99.20;;;;;;7386544;19;20954;-78
2023/03/22 11:30:28;;;;;;;1.17;0.63;;;19.40;99.20;;;;;;7387442;19;20481;-77
2023/03/22 11:33:18;;;;;;;0.63;0.60;;;19.40;98.50;;;;;;7391384;19;20141;-76
2023/03/22 11:35:52;;;;;;;1.05;0.70;;;19.40;99.40;;;;;;7391692;19;20158;-77
2023/03/22 11:38:22;;;;;;;0.70;0.60;;;19.60;99.20;;;;;;7382398;19;20866;-76
2023/03/22 11:40:53;;;;;;;1.42;1.10;;;19.70;98.60;;;;;;7389029;19;20150;-75
2023/03/22 11:43:26;;;;;;;1.50;1.00;;;19.90;96.50;;;;;;7385381;19;20901;-78
2023/03/22 11:45:57;;;;;;;1.98;0.57;;;20.00;95.10;;;;;;7385119;19;20146;-76
2023/03/22 11:48:26;;;;;;;0.77;0.70;;;20.00;95.20;;;;;;7387199;19;20130;-76
2023/03/22 11:50:54;;;;;;;2.92;0.68;;;20.10;94.90;;;;;;7385449;19;20221;-76
2023/03/22 11:53:23;;;;;;;1.88;0.57;;;20.10;94.70;;;;;;7383526;19;20154;-74
2023/03/22 11:55:52;;;;;;;0.57;0.57;;;20.10;94.40;;;;;;7384988;19;20138;-76
2023/03/22 11:58:28;;;;;;;1.52;0.80;;;19.90;93.80;;;;;;7385340;19;20142;-76
2023/03/22 12:00:58;;;;;;;0.88;0.70;;;20.10;94.00;;;;;;7387788;19;20901;-77
2023/03/22 12:03:35;;;;;;;0.52;0.52;;;19.90;93.20;;;;;;7384761;19;20584;-76
2023/03/22 12:06:04;;;;;;;0.88;0.50;;;20.00;93.40;;;;;;7382805;19;20148;-77
2023/03/22 12:08:43;;;;;;;0.93;0.50;;;20.00;93.50;;;;;;7384242;19;20183;-76
2023/03/22 12:11:46;;;;;;;1.42;0.68;;;19.90;92.60;;;;;;7384566;19;20142;-77
2023/03/22 12:14:24;;;;;;;0.80;0.70;;;20.00;93.20;;;;;;7386843;19;20167;-76
2023/03/22 12:17:03;;;;;;;0.82;0.52;;;19.90;92.50;;;;;;7386580;19;20193;-76
2023/03/22 12:19:49;;;;;;;0.70;0.70;;;20.00;93.10;;;;;;7385110;19;21023;-77
2023/03/22 12:22:23;;;;;;;1.75;0.77;;;20.10;91.80;;;;;;7384259;19;20161;-77
2023/03/22 12:24:49;;;;;;;2.47;0.80;;;20.00;92.20;;;;;;7386431;19;20142;-76
2023/03/22 12:27:45;;;;;;;2.65;0.95;;;20.00;91.80;;;;;;7394549;19;20256;-75
2023/03/22 12:30:19;;;;;;;3.72;1.10;;;19.90;91.90;;;;;;7384408;19;20222;-75
2023/03/22 12:33:03;;;;;;;1.48;1.00;;;20.00;91.40;;;;;;7385526;19;20149;-74
2023/03/22 12:35:32;;;;;;;0.90;0.65;;;20.00;91.30;;;;;;7385507;19;20148;-76
2023/03/22 12:38:09;;;;;;;1.92;1.33;;;19.70;90.80;;;;;;7386444;19;20164;-76
2023/03/22 12:40:39;;;;;;;0.47;0.40;;;19.80;90.80;;;;;;7386223;19;20138;-76
2023/03/22 12:43:33;;;;;;;1.52;0.80;;;20.00;90.40;;;;;;7383974;19;20298;-79
2023/03/22 12:46:03;;;;;;;0.38;0.38;;;20.20;90.30;;;;;;7387159;19;20147;-74
2023/03/22 12:48:40;;;;;;;0.55;0.55;;;20.10;90.60;;;;;;7386868;19;20143;-75
2023/03/22 12:51:08;;;;;;;1.35;0.70;;;20.20;91.00;;;;;;7392077;19;20154;-76
2023/03/22 12:53:41;;;;;;;1.02;0.73;;;20.10;90.50;;;;;;7391617;19;20139;-76
2023/03/22 12:56:41;;;;;;;6.63;4.20;;;20.00;91.10;;;;;;7388115;19;20151;-77
2023/03/22 12:59:23;;;;;;;0.90;0.77;;;20.00;90.80;;;;;;7389451;19;20187;-76
2023/03/22 13:01:57;;;;;;;2.80;0.60;;;20.00;90.60;;;;;;7388654;19;20478;-76
2023/03/22 13:04:34;;;;;;;0.77;0.60;;;20.00;90.80;;;;;;7390143;19;20181;-76
2023/03/22 13:07:15;;;;;;;1.48;0.73;;;20.10;90.40;;;;;;7382384;19;20150;-75